Time;durP1;ratioP1;P1;durP2;ratioP2;P2;SDS_P1;SDS_P2;PMS_P1;PMS_P2;Temp;Humidity;BMP_temperature;BMP_pressure;BME280_temperature;BME280_humidity;BME280_pressure;Samples;Min_cycle;Max_cycle;Signal;HPM_P1;HPM_P2
2023/08/23 00:01:55;;;;;;;14.23;11.52;;;;;;;-145.70;100.00;63560.63;4975348;28;20685;-64
2023/08/23 00:04:21;;;;;;;12.73;11.20;;;;;;;-145.70;100.00;63560.63;4974135;28;20106;-63
2023/08/23 00:06:46;;;;;;;14.40;12.05;;;;;;;-145.70;100.00;63560.63;4993097;28;20551;-62
2023/08/23 00:09:12;;;;;;;17.10;11.70;;;;;;;-145.70;100.00;63560.63;4987303;28;20033;-64
2023/08/23 00:11:38;;;;;;;14.77;11.73;;;;;;;-145.70;100.00;63560.63;4985799;28;20089;-62
2023/08/23 00:14:03;;;;;;;13.73;10.77;;;;;;;-145.70;100.00;63560.63;4989782;28;20034;-64
2023/08/23 00:16:32;;;;;;;16.00;11.23;;;;;;;-145.70;100.00;63560.63;4971568;28;20862;-64
2023/08/23 00:19:02;;;;;;;12.98;11.18;;;;;;;-145.70;100.00;63560.63;4981218;28;20750;-62
2023/08/23 00:21:27;;;;;;;12.10;10.63;;;;;;;-145.70;100.00;63560.63;4976824;28;20110;-63
2023/08/23 00:23:53;;;;;;;13.40;11.82;;;;;;;-145.70;100.00;63560.63;4984055;28;20034;-63
2023/08/23 00:26:21;;;;;;;13.25;11.43;;;;;;;-145.70;100.00;63560.63;4996555;28;20129;-65
2023/08/23 00:28:46;;;;;;;13.65;11.18;;;;;;;-145.70;100.00;63560.63;4998525;28;20133;-63
2023/08/23 00:31:15;;;;;;;15.10;11.20;;;;;;;-145.70;100.00;63560.63;4980890;28;20038;-64
2023/08/23 00:33:40;;;;;;;13.70;11.47;;;;;;;-145.70;100.00;63560.63;4982164;28;20107;-69
2023/08/23 00:36:08;;;;;;;14.07;12.25;;;;;;;-145.70;100.00;63560.63;4998559;28;20272;-68
2023/08/23 00:38:36;;;;;;;13.63;10.70;;;;;;;-145.70;100.00;63560.63;4993477;28;20042;-65
2023/08/23 00:41:03;;;;;;;13.35;11.13;;;;;;;-145.70;100.00;63560.63;4994013;28;20026;-63
2023/08/23 00:43:29;;;;;;;14.80;11.05;;;;;;;-145.70;100.00;63560.63;4992564;28;20847;-63
2023/08/23 00:45:54;;;;;;;13.25;11.45;;;;;;;-145.70;100.00;63560.63;4998242;28;20033;-63
2023/08/23 00:48:20;;;;;;;14.80;12.00;;;;;;;-145.70;100.00;63560.63;4984194;28;20054;-66
2023/08/23 00:50:48;;;;;;;14.68;11.05;;;;;;;-145.70;100.00;63560.63;4980835;28;20121;-64
2023/08/23 00:53:14;;;;;;;13.80;11.00;;;;;;;-145.70;100.00;63560.63;4991593;28;20033;-63
2023/08/23 00:55:41;;;;;;;12.55;10.75;;;;;;;-145.70;100.00;63560.63;4996156;28;20045;-63
2023/08/23 00:58:07;;;;;;;13.68;11.15;;;;;;;-145.70;100.00;63560.63;5000445;28;20030;-64
2023/08/23 01:00:33;;;;;;;14.50;11.23;;;;;;;-145.70;100.00;63560.63;4994790;28;20037;-65
2023/08/23 01:02:59;;;;;;;13.38;11.40;;;;;;;-145.70;100.00;63560.63;4997036;28;20037;-64
2023/08/23 01:05:35;;;;;;;12.90;11.23;;;;;;;-145.70;100.00;63560.63;4983669;28;20848;-64
2023/08/23 01:08:19;;;;;;;12.90;11.25;;;;;;;-145.70;100.00;63560.63;4993559;28;20061;-64
2023/08/23 01:10:52;;;;;;;13.85;11.40;;;;;;;-145.70;100.00;63560.63;4978224;28;20030;-63
2023/08/23 01:13:41;;;;;;;13.23;11.23;;;;;;;-145.70;100.00;63560.63;4989381;28;20033;-64
2023/08/23 01:16:12;;;;;;;15.27;11.45;;;;;;;-145.70;100.00;63560.63;4989342;28;20176;-64
2023/08/23 01:18:39;;;;;;;13.38;11.35;;;;;;;-145.70;100.00;63560.63;4979455;28;20038;-64
2023/08/23 01:21:06;;;;;;;12.15;10.77;;;;;;;-145.70;100.00;63560.63;4980248;28;20654;-64
2023/08/23 01:23:33;;;;;;;13.15;10.73;;;;;;;-145.70;100.00;63560.63;4981042;28;20113;-64
2023/08/23 01:26:01;;;;;;;12.65;11.30;;;;;;;-145.70;100.00;63560.63;4998941;28;20477;-64
2023/08/23 01:28:28;;;;;;;13.10;10.90;;;;;;;-145.70;100.00;63560.63;5000059;28;20507;-63
2023/08/23 01:30:56;;;;;;;12.73;11.02;;;;;;;-145.70;100.00;63560.63;4983870;28;20541;-63
2023/08/23 01:33:29;;;;;;;14.50;11.32;;;;;;;-145.70;100.00;63560.63;4981087;28;20030;-64
2023/08/23 01:36:12;;;;;;;12.48;10.68;;;;;;;-145.70;100.00;63560.63;4989795;28;20125;-65
2023/08/23 01:38:41;;;;;;;13.95;11.30;;;;;;;-145.70;100.00;63560.63;4988393;28;20046;-64
2023/08/23 01:41:06;;;;;;;12.48;11.18;;;;;;;-145.70;100.00;63560.63;4992403;28;20117;-65
2023/08/23 01:43:32;;;;;;;13.57;11.23;;;;;;;-145.70;100.00;63560.63;4992480;28;20471;-63
2023/08/23 01:45:57;;;;;;;12.82;10.68;;;;;;;-145.70;100.00;63560.63;4997160;28;20477;-63
2023/08/23 01:48:22;;;;;;;13.52;10.68;;;;;;;-145.70;100.00;63560.63;4975057;28;20551;-62
2023/08/23 01:50:49;;;;;;;13.93;11.30;;;;;;;-145.70;100.00;63560.63;4994013;28;20041;-64
2023/08/23 01:53:17;;;;;;;13.63;10.95;;;;;;;-145.70;100.00;63560.63;4999197;28;20022;-66
2023/08/23 01:55:45;;;;;;;13.82;11.43;;;;;;;-145.70;100.00;63560.63;4980870;28;20116;-62
2023/08/23 01:58:10;;;;;;;14.25;11.23;;;;;;;-145.70;100.00;63560.63;4992528;28;20026;-63
2023/08/23 02:00:38;;;;;;;12.90;11.40;;;;;;;-145.70;100.00;63560.63;4978181;28;20504;-65
2023/08/23 02:03:06;;;;;;;12.48;11.00;;;;;;;-145.70;100.00;63560.63;4992698;28;20080;-64
2023/08/23 02:05:31;;;;;;;14.10;11.07;;;;;;;-145.70;100.00;63560.63;4991109;28;20100;-64
2023/08/23 02:07:59;;;;;;;14.32;11.77;;;;;;;-145.70;100.00;63560.63;4990854;28;20055;-63
2023/08/23 02:10:25;;;;;;;13.43;10.73;;;;;;;-145.70;100.00;63560.63;4983848;28;20092;-63
2023/08/23 02:12:52;;;;;;;11.40;10.18;;;;;;;-145.70;100.00;63560.63;4994987;28;20041;-64
2023/08/23 02:15:18;;;;;;;12.25;10.75;;;;;;;-145.70;100.00;63560.63;4977516;28;20059;-63
2023/08/23 02:17:43;;;;;;;13.60;11.68;;;;;;;-145.70;100.00;63560.63;4978337;28;20116;-62
2023/08/23 02:20:09;;;;;;;15.15;11.57;;;;;;;-145.70;100.00;63560.63;4995155;28;20029;-63
2023/08/23 02:22:35;;;;;;;14.35;11.43;;;;;;;-145.70;100.00;63560.63;4975081;28;20154;-62
2023/08/23 02:25:00;;;;;;;14.43;11.43;;;;;;;-145.70;100.00;63560.63;4996005;28;21677;-64
2023/08/23 02:27:25;;;;;;;12.00;10.73;;;;;;;-145.70;100.00;63560.63;4992715;28;20030;-63
2023/08/23 02:29:52;;;;;;;13.48;10.85;;;;;;;-145.70;100.00;63560.63;4991315;28;20633;-63
2023/08/23 02:32:17;;;;;;;14.32;11.05;;;;;;;-145.70;100.00;63560.63;4993174;28;20489;-64
2023/08/23 02:34:45;;;;;;;14.13;11.15;;;;;;;-145.70;100.00;63560.63;4992573;28;20029;-62
2023/08/23 02:37:15;;;;;;;12.90;11.35;;;;;;;-145.70;100.00;63560.63;4991662;28;20104;-62
2023/08/23 02:39:41;;;;;;;13.43;11.23;;;;;;;-145.70;100.00;63560.63;4993830;28;20034;-64
2023/08/23 02:42:06;;;;;;;13.55;11.30;;;;;;;-145.70;100.00;63560.63;4992800;28;20539;-63
2023/08/23 02:44:32;;;;;;;13.38;11.40;;;;;;;-145.70;100.00;63560.63;4975732;28;20052;-63
2023/08/23 02:46:59;;;;;;;14.80;11.55;;;;;;;-145.70;100.00;63560.63;4991805;28;20073;-64
2023/08/23 02:49:27;;;;;;;13.15;11.75;;;;;;;-145.70;100.00;63560.63;4997567;28;20025;-64
2023/08/23 02:51:52;;;;;;;14.40;11.48;;;;;;;-145.70;100.00;63560.63;4979024;28;20084;-63
2023/08/23 02:54:17;;;;;;;13.13;11.40;;;;;;;-145.70;100.00;63560.63;4991656;28;20444;-63
2023/08/23 02:56:43;;;;;;;13.70;11.20;;;;;;;-145.70;100.00;63560.63;4996520;28;20283;-65
2023/08/23 02:59:09;;;;;;;14.85;11.50;;;;;;;-145.70;100.00;63560.63;4977742;28;20029;-64
2023/08/23 03:01:34;;;;;;;13.48;11.48;;;;;;;-145.70;100.00;63560.63;4993375;28;20081;-63
2023/08/23 03:03:59;;;;;;;15.57;11.25;;;;;;;-145.70;100.00;63560.63;5000498;28;20029;-63
2023/08/23 03:06:25;;;;;;;13.77;11.27;;;;;;;-145.70;100.00;63560.63;4998016;28;20813;-64
2023/08/23 03:08:50;;;;;;;12.98;11.48;;;;;;;-145.70;100.00;63560.63;4980024;28;20147;-65
2023/08/23 03:11:16;;;;;;;13.00;11.57;;;;;;;-145.70;100.00;63560.63;4989630;28;20034;-64
2023/08/23 03:13:41;;;;;;;13.15;11.15;;;;;;;-145.70;100.00;63560.63;4984452;28;20022;-64
2023/08/23 03:16:06;;;;;;;12.55;11.00;;;;;;;-145.70;100.00;63560.63;4988412;28;20115;-64
2023/08/23 03:18:32;;;;;;;13.50;11.68;;;;;;;-145.70;100.00;63560.63;4976679;28;20113;-64
2023/08/23 03:20:58;;;;;;;16.92;12.02;;;;;;;-145.70;100.00;63560.63;4993329;28;20034;-64
2023/08/23 03:23:23;;;;;;;12.57;11.27;;;;;;;-145.70;100.00;63560.63;4980165;28;20180;-64
2023/08/23 03:25:51;;;;;;;13.23;11.65;;;;;;;-145.70;100.00;63560.63;4980354;28;20030;-64
2023/08/23 03:28:19;;;;;;;16.20;11.23;;;;;;;-145.70;100.00;63560.63;4994741;28;20385;-62
2023/08/23 03:30:44;;;;;;;13.25;11.85;;;;;;;-145.70;100.00;63560.63;4992852;28;20127;-63
2023/08/23 03:33:10;;;;;;;15.02;11.82;;;;;;;-145.70;100.00;63560.63;4974605;28;20398;-63
2023/08/23 03:35:41;;;;;;;13.27;11.77;;;;;;;-145.70;100.00;63560.63;4993235;28;20030;-63
2023/08/23 03:38:06;;;;;;;12.38;11.05;;;;;;;-145.70;100.00;63560.63;4970607;28;20031;-64
2023/08/23 03:40:36;;;;;;;14.18;12.45;;;;;;;-145.70;100.00;63560.63;4977255;28;20031;-63
2023/08/23 03:43:02;;;;;;;13.00;11.70;;;;;;;-145.70;100.00;63560.63;4989951;28;20092;-63
2023/08/23 03:45:27;;;;;;;13.40;11.95;;;;;;;-145.70;100.00;63560.63;4974869;28;21262;-64
2023/08/23 03:47:53;;;;;;;13.80;11.88;;;;;;;-145.70;100.00;63560.63;4991741;28;20026;-64
2023/08/23 03:50:20;;;;;;;14.48;11.55;;;;;;;-145.70;100.00;63560.63;4973994;28;21722;-64
2023/08/23 03:52:46;;;;;;;13.25;11.85;;;;;;;-145.70;100.00;63560.63;4974795;28;20061;-65
2023/08/23 03:55:11;;;;;;;14.00;12.13;;;;;;;-145.70;100.00;63560.63;4992759;28;20022;-64
2023/08/23 03:57:39;;;;;;;14.98;11.65;;;;;;;-145.70;100.00;63560.63;4994203;28;20070;-64
2023/08/23 04:00:07;;;;;;;12.68;11.43;;;;;;;-145.70;100.00;63560.63;4992973;28;20037;-65
2023/08/23 04:02:33;;;;;;;15.73;11.48;;;;;;;-145.70;100.00;63560.63;4998207;28;20018;-63
2023/08/23 04:05:01;;;;;;;13.65;11.32;;;;;;;-145.70;100.00;63560.63;4996514;28;20033;-63
2023/08/23 04:07:29;;;;;;;14.63;11.82;;;;;;;-145.70;100.00;63560.63;4995253;28;20104;-63
2023/08/23 04:09:54;;;;;;;14.02;11.38;;;;;;;-145.70;100.00;63560.63;4992205;28;20030;-64
2023/08/23 04:12:19;;;;;;;14.68;11.73;;;;;;;-145.70;100.00;63560.63;4982061;28;20044;-63
2023/08/23 04:14:49;;;;;;;15.15;11.38;;;;;;;-145.70;100.00;63560.63;4976455;28;20741;-64
2023/08/23 04:17:17;;;;;;;15.98;11.70;;;;;;;-145.70;100.00;63560.63;4975016;28;20471;-64
2023/08/23 04:19:43;;;;;;;15.45;11.80;;;;;;;-145.70;100.00;63560.63;4981093;28;20036;-65
2023/08/23 04:22:08;;;;;;;16.88;12.15;;;;;;;-145.70;100.00;63560.63;4993069;28;20077;-63
2023/08/23 04:24:36;;;;;;;13.85;10.88;;;;;;;-145.70;100.00;63560.63;4979691;28;20714;-63
2023/08/23 04:27:03;;;;;;;14.90;11.07;;;;;;;-145.70;100.00;63560.63;4994405;28;20796;-63
2023/08/23 04:29:31;;;;;;;13.07;11.23;;;;;;;-145.70;100.00;63560.63;4975626;28;20049;-63
2023/08/23 04:31:57;;;;;;;12.68;11.07;;;;;;;-145.70;100.00;63560.63;4998833;28;20064;-64
2023/08/23 04:34:22;;;;;;;13.02;11.65;;;;;;;-145.70;100.00;63560.63;5001414;28;20026;-64
2023/08/23 04:36:48;;;;;;;15.00;11.52;;;;;;;-145.70;100.00;63560.63;5003939;28;20025;-64
2023/08/23 04:39:13;;;;;;;13.75;11.95;;;;;;;-145.70;100.00;63560.63;4975192;28;20064;-61
2023/08/23 04:41:41;;;;;;;13.30;11.50;;;;;;;-145.70;100.00;63560.63;4980998;28;20469;-64
2023/08/23 04:44:09;;;;;;;15.27;11.82;;;;;;;-145.70;100.00;63560.63;4991609;28;20117;-62
2023/08/23 04:46:39;;;;;;;13.68;11.38;;;;;;;-145.70;100.00;63560.63;4995137;28;20045;-63
2023/08/23 04:49:06;;;;;;;13.25;11.52;;;;;;;-145.70;100.00;63560.63;4988262;28;20065;-64
2023/08/23 04:51:34;;;;;;;14.52;11.25;;;;;;;-145.70;100.00;63560.63;4993344;28;20026;-63
2023/08/23 04:53:59;;;;;;;16.13;11.85;;;;;;;-145.70;100.00;63560.63;5001729;28;20606;-63
2023/08/23 04:56:25;;;;;;;13.55;11.82;;;;;;;-145.70;100.00;63560.63;4992114;28;20042;-64
2023/08/23 04:58:53;;;;;;;14.02;12.10;;;;;;;-145.70;100.00;63560.63;4987290;28;20062;-64
2023/08/23 05:01:18;;;;;;;14.50;11.10;;;;;;;-145.70;100.00;63560.63;4973849;28;20034;-64
2023/08/23 05:03:43;;;;;;;13.13;11.48;;;;;;;-145.70;100.00;63560.63;4975792;28;20030;-65
2023/08/23 05:06:16;;;;;;;14.15;11.00;;;;;;;-145.70;100.00;63560.63;4990301;28;20088;-62
2023/08/23 05:08:42;;;;;;;12.90;11.60;;;;;;;-145.70;100.00;63560.63;4991398;28;20058;-63
2023/08/23 05:11:07;;;;;;;13.18;11.70;;;;;;;-145.70;100.00;63560.63;4993230;28;20061;-65
2023/08/23 05:13:32;;;;;;;15.65;11.27;;;;;;;-145.70;100.00;63560.63;4980855;28;20596;-63
2023/08/23 05:15:58;;;;;;;14.18;12.20;;;;;;;-145.70;100.00;63560.63;4976910;28;20109;-63
2023/08/23 05:18:24;;;;;;;13.05;11.27;;;;;;;-145.70;100.00;63560.63;4987210;28;20036;-62
2023/08/23 05:21:02;;;;;;;15.38;11.77;;;;;;;-145.70;100.00;63560.63;4989596;28;20103;-64
2023/08/23 05:23:28;;;;;;;13.43;11.65;;;;;;;-145.70;100.00;63560.63;4994842;28;20168;-64
2023/08/23 05:25:54;;;;;;;15.60;11.57;;;;;;;-145.70;100.00;63560.63;4982394;28;20042;-65
2023/08/23 05:28:20;;;;;;;14.20;12.05;;;;;;;-145.70;100.00;63560.63;4992409;28;20136;-63
2023/08/23 05:30:45;;;;;;;13.18;11.52;;;;;;;-145.70;100.00;63560.63;4983447;28;20133;-63
2023/08/23 05:33:12;;;;;;;14.73;12.02;;;;;;;-145.70;100.00;63560.63;4994905;28;21486;-63
2023/08/23 05:35:39;;;;;;;13.55;11.07;;;;;;;-145.70;100.00;63560.63;4997224;28;20041;-63
2023/08/23 05:38:04;;;;;;;13.55;11.98;;;;;;;-145.70;100.00;63560.63;4980521;28;20022;-63
2023/08/23 05:40:32;;;;;;;14.98;11.75;;;;;;;-145.70;100.00;63560.63;4999529;28;20037;-63
2023/08/23 05:42:57;;;;;;;16.63;11.60;;;;;;;-145.70;100.00;63560.63;4989599;28;20036;-63
2023/08/23 05:45:26;;;;;;;14.60;11.60;;;;;;;-145.70;100.00;63560.63;4986800;28;20030;-63
2023/08/23 05:47:52;;;;;;;;;;;;;;;-145.70;100.00;63560.63;4976383;28;20080;-63
2023/08/23 05:50:20;;;;;;;13.07;10.60;;;;;;;-145.70;100.00;63560.63;4992614;28;19929;-64
2023/08/23 05:52:45;;;;;;;12.93;11.00;;;;;;;-145.70;100.00;63560.63;4985476;28;20041;-62
2023/08/23 05:55:11;;;;;;;12.82;11.10;;;;;;;-145.70;100.00;63560.63;4997707;28;20049;-65
2023/08/23 05:57:36;;;;;;;13.80;11.20;;;;;;;-145.70;100.00;63560.63;4990152;28;20042;-64
2023/08/23 06:00:02;;;;;;;15.93;12.15;;;;;;;-145.70;100.00;63560.63;4978250;28;20076;-64
2023/08/23 06:02:28;;;;;;;15.55;11.38;;;;;;;-145.70;100.00;63560.63;4976792;28;20408;-63
2023/08/23 06:04:55;;;;;;;14.38;11.48;;;;;;;-145.70;100.00;63560.63;4980089;28;20025;-64
2023/08/23 06:07:23;;;;;;;14.38;11.68;;;;;;;-145.70;100.00;63560.63;4995488;28;20089;-62
2023/08/23 06:09:49;;;;;;;14.75;11.50;;;;;;;-145.70;100.00;63560.63;4993649;28;20949;-64
2023/08/23 06:12:14;;;;;;;15.48;11.55;;;;;;;-145.70;100.00;63560.63;4976411;28;20044;-63
2023/08/23 06:14:39;;;;;;;13.70;11.18;;;;;;;-145.70;100.00;63560.63;4981336;28;20072;-63
2023/08/23 06:17:06;;;;;;;13.88;11.13;;;;;;;-145.70;100.00;63560.63;4994897;28;20026;-62
2023/08/23 06:19:32;;;;;;;14.00;12.05;;;;;;;-145.70;100.00;63560.63;4992673;28;20110;-62
2023/08/23 06:21:57;;;;;;;14.43;11.85;;;;;;;-145.70;100.00;63560.63;4991628;28;20030;-63
2023/08/23 06:24:22;;;;;;;14.80;11.18;;;;;;;-145.70;100.00;63560.63;4976719;28;20098;-64
2023/08/23 06:26:50;;;;;;;15.25;11.18;;;;;;;-145.70;100.00;63560.63;4990104;28;20065;-63
2023/08/23 06:29:16;;;;;;;15.10;11.95;;;;;;;-145.70;100.00;63560.63;4996272;28;20051;-63
2023/08/23 06:31:41;;;;;;;16.23;11.73;;;;;;;-145.70;100.00;63560.63;4989453;28;20144;-64
2023/08/23 06:34:07;;;;;;;16.13;12.18;;;;;;;-145.70;100.00;63560.63;4974911;28;20684;-66
2023/08/23 06:36:32;;;;;;;13.38;11.55;;;;;;;-145.70;100.00;63560.63;4989964;28;20073;-63
2023/08/23 06:38:57;;;;;;;13.80;11.48;;;;;;;-145.70;100.00;63560.63;4994886;28;20027;-64
2023/08/23 06:41:28;;;;;;;14.18;11.90;;;;;;;-145.70;100.00;63560.63;4994374;28;20041;-63
2023/08/23 06:44:01;;;;;;;12.88;11.07;;;;;;;-145.70;100.00;63560.63;4974965;28;20104;-62
2023/08/23 06:46:27;;;;;;;13.63;11.65;;;;;;;-145.70;100.00;63560.63;4996652;28;20053;-62
2023/08/23 06:48:53;;;;;;;13.95;11.82;;;;;;;-145.70;100.00;63560.63;4984986;28;20026;-63
2023/08/23 06:51:20;;;;;;;13.52;11.35;;;;;;;-145.70;100.00;63560.63;4997419;28;20029;-64
2023/08/23 06:53:46;;;;;;;17.00;11.80;;;;;;;-145.70;100.00;63560.63;4978315;28;20798;-61
2023/08/23 06:56:14;;;;;;;14.10;11.40;;;;;;;-145.70;100.00;63560.63;4999974;28;20036;-63
2023/08/23 06:58:39;;;;;;;13.00;11.50;;;;;;;-145.70;100.00;63560.63;4976481;28;20037;-63
2023/08/23 07:01:14;;;;;;;14.68;11.68;;;;;;;-145.70;100.00;63560.63;4991914;28;20088;-63
2023/08/23 07:03:44;;;;;;;14.52;11.23;;;;;;;-145.70;100.00;63560.63;4992589;28;20208;-62
2023/08/23 07:06:16;;;;;;;13.35;10.93;;;;;;;-145.70;100.00;63560.63;4979240;28;20045;-62
2023/08/23 07:08:44;;;;;;;13.13;11.07;;;;;;;-145.70;100.00;63560.63;4978424;28;20544;-63
2023/08/23 07:11:12;;;;;;;15.35;11.35;;;;;;;-145.70;100.00;63560.63;4997800;28;20037;-63
2023/08/23 07:13:40;;;;;;;13.98;10.82;;;;;;;-145.70;100.00;63560.63;4994423;28;20110;-64
2023/08/23 07:16:06;;;;;;;15.90;11.45;;;;;;;-145.70;100.00;63560.63;4980699;28;20744;-64
2023/08/23 07:18:34;;;;;;;14.38;11.48;;;;;;;-145.70;100.00;63560.63;4992595;28;20022;-65
2023/08/23 07:20:59;;;;;;;12.68;10.82;;;;;;;-145.70;100.00;63560.63;4973967;28;20102;-63
2023/08/23 07:23:27;;;;;;;16.80;11.75;;;;;;;-145.70;100.00;63560.63;4996010;28;20026;-65
2023/08/23 07:25:55;;;;;;;13.38;11.57;;;;;;;-145.70;100.00;63560.63;4995129;28;20034;-65
2023/08/23 07:28:23;;;;;;;14.85;11.65;;;;;;;-145.70;100.00;63560.63;4992771;28;20030;-66
2023/08/23 07:30:56;;;;;;;13.88;11.70;;;;;;;-145.70;100.00;63560.63;4995439;28;20037;-65
2023/08/23 07:33:25;;;;;;;14.65;11.98;;;;;;;-145.70;100.00;63560.63;4979721;28;20025;-66
2023/08/23 07:35:59;;;;;;;14.73;11.07;;;;;;;-145.70;100.00;63560.63;4979526;28;20053;-63
2023/08/23 07:38:25;;;;;;;13.10;11.02;;;;;;;-145.70;100.00;63560.63;4989001;28;20029;-66
2023/08/23 07:40:50;;;;;;;13.30;11.93;;;;;;;-145.70;100.00;63560.63;4993175;28;20049;-64
2023/08/23 07:43:18;;;;;;;13.80;12.25;;;;;;;-145.70;100.00;63560.63;4977633;28;20029;-65
2023/08/23 07:45:50;;;;;;;14.25;11.23;;;;;;;-145.70;100.00;63560.63;4980253;28;20228;-65
2023/08/23 07:48:18;;;;;;;14.25;11.40;;;;;;;-145.70;100.00;63560.63;4990308;28;20450;-64
2023/08/23 07:50:47;;;;;;;13.43;11.32;;;;;;;-145.70;100.00;63560.63;4998302;28;20048;-64
2023/08/23 07:53:13;;;;;;;12.98;11.63;;;;;;;-145.70;100.00;63560.63;4996047;28;20030;-64
2023/08/23 07:55:40;;;;;;;14.10;11.77;;;;;;;-145.70;100.00;63560.63;4995463;28;20933;-63
2023/08/23 07:58:06;;;;;;;12.70;10.95;;;;;;;-145.70;100.00;63560.63;4995700;28;20069;-65
2023/08/23 08:00:31;;;;;;;16.58;12.32;;;;;;;-145.70;100.00;63560.63;4974925;28;20156;-65
2023/08/23 08:02:59;;;;;;;13.65;11.15;;;;;;;-145.70;100.00;63560.63;4979711;28;20041;-66
2023/08/23 08:05:24;;;;;;;13.70;10.95;;;;;;;-145.70;100.00;63560.63;4992991;28;20595;-63
2023/08/23 08:07:49;;;;;;;12.77;11.27;;;;;;;-145.70;100.00;63560.63;4989541;28;20046;-61
2023/08/23 08:10:18;;;;;;;13.02;10.80;;;;;;;-145.70;100.00;63560.63;4993738;28;20033;-64
2023/08/23 08:12:43;;;;;;;13.90;10.35;;;;;;;-145.70;100.00;63560.63;4995197;28;20059;-64
2023/08/23 08:15:09;;;;;;;11.85;10.32;;;;;;;-145.70;100.00;63560.63;4977822;28;20510;-64
2023/08/23 08:17:39;;;;;;;11.82;10.15;;;;;;;-145.70;100.00;63560.63;4990969;28;20037;-65
2023/08/23 08:20:07;;;;;;;11.85;10.65;;;;;;;-145.70;100.00;63560.63;4992438;28;20082;-62
2023/08/23 08:22:32;;;;;;;13.40;11.00;;;;;;;-145.70;100.00;63560.63;4973965;28;20120;-65
2023/08/23 08:24:58;;;;;;;14.82;10.65;;;;;;;-145.70;100.00;63560.63;4993764;28;20038;-66
2023/08/23 08:27:23;;;;;;;12.20;10.40;;;;;;;-145.70;100.00;63560.63;4976474;28;20026;-66
2023/08/23 08:29:49;;;;;;;14.65;10.35;;;;;;;-145.70;100.00;63560.63;4994882;28;20481;-66
2023/08/23 08:32:14;;;;;;;14.20;10.13;;;;;;;-145.70;100.00;63560.63;4998906;28;20048;-65
2023/08/23 08:34:42;;;;;;;12.95;10.25;;;;;;;-145.70;100.00;63560.63;4990874;28;20129;-64
2023/08/23 08:37:11;;;;;;;11.88;9.93;;;;;;;-145.70;100.00;63560.63;4979204;28;20034;-64
2023/08/23 08:39:36;;;;;;;11.60;9.50;;;;;;;-145.70;100.00;63560.63;4998251;28;20048;-65
2023/08/23 08:42:02;;;;;;;10.52;9.43;;;;;;;-145.70;100.00;63560.63;4988370;28;20037;-64
2023/08/23 08:44:27;;;;;;;11.93;9.38;;;;;;;-145.70;100.00;63560.63;4985349;28;20508;-62
2023/08/23 08:46:55;;;;;;;10.35;8.25;;;;;;;-145.70;100.00;63560.63;4995810;28;20072;-64
2023/08/23 08:49:20;;;;;;;12.18;8.55;;;;;;;-145.70;100.00;63560.63;4999323;28;20844;-64
2023/08/23 08:51:47;;;;;;;10.45;8.52;;;;;;;-145.70;100.00;63560.63;4997627;28;20034;-65
2023/08/23 08:54:15;;;;;;;10.40;8.23;;;;;;;-145.70;100.00;63560.63;4998566;28;21188;-62
2023/08/23 08:56:42;;;;;;;10.20;8.75;;;;;;;-145.70;100.00;63560.63;4996287;28;20034;-66
2023/08/23 08:59:07;;;;;;;12.30;8.95;;;;;;;-145.70;100.00;63560.63;4997482;28;20354;-63
2023/08/23 09:01:34;;;;;;;11.73;8.35;;;;;;;-145.70;100.00;63560.63;4996482;28;20540;-65
2023/08/23 09:04:00;;;;;;;11.90;9.35;;;;;;;-145.70;100.00;63560.63;4978460;28;20029;-64
2023/08/23 09:06:26;;;;;;;10.93;8.50;;;;;;;-145.70;100.00;63560.63;4982403;28;20063;-65
2023/08/23 09:08:55;;;;;;;10.77;8.18;;;;;;;-145.70;100.00;63560.63;4988085;28;20029;-67
2023/08/23 09:11:24;;;;;;;11.77;9.07;;;;;;;-145.70;100.00;63560.63;4997090;28;20033;-65
2023/08/23 09:13:49;;;;;;;13.00;9.57;;;;;;;-145.70;100.00;63560.63;4985629;28;20042;-66
2023/08/23 09:16:17;;;;;;;13.20;9.38;;;;;;;-145.70;100.00;63560.63;4980271;28;20040;-63
2023/08/23 09:18:46;;;;;;;10.63;9.15;;;;;;;-145.70;100.00;63560.63;4993083;28;20091;-64
2023/08/23 09:21:13;;;;;;;11.10;8.65;;;;;;;-145.70;100.00;63560.63;4983033;28;20026;-65
2023/08/23 09:23:38;;;;;;;11.68;9.48;;;;;;;-145.70;100.00;63560.63;4982890;28;20033;-64
2023/08/23 09:26:07;;;;;;;12.20;9.23;;;;;;;-145.70;100.00;63560.63;4997022;28;20591;-66
2023/08/23 09:28:35;;;;;;;11.13;8.85;;;;;;;-145.70;100.00;63560.63;4996974;28;20584;-64
2023/08/23 09:31:06;;;;;;;12.45;9.13;;;;;;;-145.70;100.00;63560.63;4994915;28;20069;-64
2023/08/23 09:33:37;;;;;;;12.98;9.15;;;;;;;-145.70;100.00;63560.63;4993813;28;20064;-66
2023/08/23 09:36:02;;;;;;;12.07;8.95;;;;;;;-145.70;100.00;63560.63;4980109;28;20120;-64
2023/08/23 09:38:29;;;;;;;12.23;8.93;;;;;;;-145.70;100.00;63560.63;4988816;28;20065;-59
2023/08/23 09:40:54;;;;;;;13.68;9.32;;;;;;;-145.70;100.00;63560.63;4984926;28;20037;-61
2023/08/23 09:43:23;;;;;;;11.20;8.60;;;;;;;-145.70;100.00;63560.63;4963899;28;20038;-61
2023/08/23 09:45:49;;;;;;;12.00;8.57;;;;;;;-145.70;100.00;63560.63;4990167;28;20038;-60
2023/08/23 09:48:17;;;;;;;11.80;8.75;;;;;;;-145.70;100.00;63560.63;4963512;28;20040;-60
2023/08/23 09:50:43;;;;;;;13.40;9.10;;;;;;;-145.70;100.00;63560.63;4983657;28;20954;-62
2023/08/23 09:53:28;;;;;;;13.45;8.82;;;;;;;-145.70;100.00;63560.63;4980811;28;20145;-60
2023/08/23 09:55:57;;;;;;;12.35;8.10;;;;;;;-145.70;100.00;63560.63;4984505;28;20030;-63
2023/08/23 09:58:22;;;;;;;11.23;8.60;;;;;;;-145.70;100.00;63560.63;4989980;28;20019;-62
2023/08/23 10:00:51;;;;;;;11.77;8.27;;;;;;;-145.70;100.00;63560.63;4982350;28;20355;-60
2023/08/23 10:03:23;;;;;;;11.65;8.75;;;;;;;-145.70;100.00;63560.63;4983732;28;20818;-62
2023/08/23 10:05:52;;;;;;;12.18;8.10;;;;;;;-145.70;100.00;63560.63;4964477;28;20124;-61
2023/08/23 10:08:21;;;;;;;11.63;9.00;;;;;;;-145.70;100.00;63560.63;4981217;28;20081;-61
2023/08/23 10:10:50;;;;;;;9.30;8.13;;;;;;;-145.70;100.00;63560.63;4989831;28;20046;-61
2023/08/23 10:13:17;;;;;;;;;;;;;;;-145.70;100.00;63560.63;4985407;28;20146;-60
2023/08/23 10:15:43;;;;;;;13.13;8.40;;;;;;;-145.70;100.00;63560.63;4984134;28;19921;-61
2023/08/23 10:18:11;;;;;;;12.35;8.75;;;;;;;-145.70;100.00;63560.63;4967018;28;20034;-61
2023/08/23 10:20:37;;;;;;;10.45;8.63;;;;;;;-145.70;100.00;63560.63;4965384;28;20034;-59
2023/08/23 10:23:18;;;;;;;10.23;8.48;;;;;;;-145.70;100.00;63560.63;4982576;28;20697;-60
2023/08/23 10:25:48;;;;;;;11.65;8.80;;;;;;;-145.70;100.00;63560.63;4965314;28;20042;-61
2023/08/23 10:28:16;;;;;;;11.57;9.15;;;;;;;-145.70;100.00;63560.63;4980772;28;20038;-62
2023/08/23 10:30:46;;;;;;;12.55;9.30;;;;;;;-145.70;100.00;63560.63;4963580;28;20473;-63
2023/08/23 10:33:16;;;;;;;9.52;8.45;;;;;;;-145.70;100.00;63560.63;4984558;28;20245;-60
2023/08/23 10:35:43;;;;;;;10.43;7.65;;;;;;;-145.70;100.00;63560.63;4979745;28;20025;-62
2023/08/23 10:38:09;;;;;;;10.98;9.00;;;;;;;-145.70;100.00;63560.63;4984807;28;20029;-62
2023/08/23 10:40:37;;;;;;;9.85;8.23;;;;;;;-145.70;100.00;63560.63;4964840;28;20544;-63
2023/08/23 10:43:09;;;;;;;10.93;8.43;;;;;;;-145.70;100.00;63560.63;4983755;28;20037;-62
2023/08/23 10:45:55;;;;;;;11.75;9.40;;;;;;;-145.70;100.00;63560.63;4961448;28;20030;-62
2023/08/23 10:48:22;;;;;;;13.13;9.40;;;;;;;-145.70;100.00;63560.63;4977268;28;20040;-63
2023/08/23 10:50:48;;;;;;;11.60;9.43;;;;;;;-145.70;100.00;63560.63;4976156;28;20022;-61
2023/08/23 10:53:18;;;;;;;10.77;8.65;;;;;;;-145.70;100.00;63560.63;4970570;28;20033;-62
2023/08/23 10:55:44;;;;;;;10.55;8.63;;;;;;;-145.70;100.00;63560.63;4962076;28;20030;-62
2023/08/23 10:58:10;;;;;;;11.88;9.07;;;;;;;-145.70;100.00;63560.63;4978485;28;20038;-61